createdAt,value
2024-02-07T00:00:13.909Z,8.49
2024-02-07T00:01:16.254Z,8.43
2024-02-07T00:02:18.678Z,8.48
2024-02-07T00:03:21.014Z,8.46
2024-02-07T00:04:23.698Z,8.50
2024-02-07T00:05:26.104Z,8.50
2024-02-07T00:06:28.395Z,8.52
2024-02-07T00:07:30.824Z,8.53
2024-02-07T00:08:33.284Z,8.51
2024-02-07T00:09:35.701Z,8.50
2024-02-07T00:10:38.022Z,8.55
2024-02-07T00:11:40.771Z,8.49
2024-02-07T00:12:43.969Z,8.62
2024-02-07T00:13:46.287Z,8.58
2024-02-07T00:14:48.544Z,8.49
2024-02-07T00:15:50.857Z,8.54
2024-02-07T00:16:53.308Z,8.51
2024-02-07T00:17:55.692Z,8.50
2024-02-07T00:18:58.294Z,8.64
2024-02-07T00:20:00.807Z,8.68
2024-02-07T00:21:03.539Z,8.64
2024-02-07T00:22:06.618Z,8.65
2024-02-07T00:23:09.007Z,8.66
2024-02-07T00:24:11.311Z,8.62
2024-02-07T00:25:13.708Z,8.62
2024-02-07T00:26:16.017Z,8.71
2024-02-07T00:27:18.807Z,8.65
2024-02-07T00:28:21.350Z,8.68
2024-02-07T00:29:24.008Z,8.64
2024-02-07T00:30:31.387Z,8.71
2024-02-07T00:31:40.838Z,8.72
2024-02-07T00:32:43.878Z,8.74
2024-02-07T00:33:46.199Z,8.70
2024-02-07T00:34:48.634Z,8.67
2024-02-07T00:35:51.147Z,8.66
2024-02-07T00:36:53.792Z,8.61
2024-02-07T00:37:56.125Z,8.64
2024-02-07T00:39:00.115Z,8.70
2024-02-07T00:40:02.479Z,8.68
2024-02-07T00:41:05.003Z,8.66
2024-02-07T00:42:07.277Z,8.63
2024-02-07T00:43:09.641Z,8.61
2024-02-07T00:44:12.034Z,8.68
2024-02-07T00:45:14.627Z,8.63
2024-02-07T00:46:17.838Z,8.59
2024-02-07T00:47:20.324Z,8.64
2024-02-07T00:48:22.963Z,8.64
2024-02-07T00:49:25.352Z,8.62
2024-02-07T00:50:27.660Z,8.55
2024-02-07T00:51:32.273Z,8.59
2024-02-07T00:52:34.586Z,8.56
2024-02-07T00:53:36.964Z,8.55
2024-02-07T00:54:39.225Z,8.60
2024-02-07T00:55:41.628Z,8.56
2024-02-07T00:56:44.209Z,8.53
2024-02-07T00:57:48.165Z,8.54
2024-02-07T00:58:50.506Z,8.53
2024-02-07T00:59:52.891Z,8.52
2024-02-07T01:00:55.748Z,8.60
2024-02-07T01:01:58.089Z,8.63
2024-02-07T01:03:00.472Z,8.56
2024-02-07T01:04:02.753Z,8.60
2024-02-07T01:05:06.184Z,8.72
2024-02-07T01:06:08.619Z,8.64
2024-02-07T01:07:11.192Z,8.60
2024-02-07T01:08:14.567Z,8.61
2024-02-07T01:09:17.389Z,8.53
2024-02-07T01:10:20.176Z,8.58
2024-02-07T01:11:22.580Z,8.60
2024-02-07T01:12:24.848Z,8.62
2024-02-07T01:13:28.153Z,8.71
2024-02-07T01:14:30.501Z,8.69
2024-02-07T01:15:33.365Z,8.72
2024-02-07T01:16:35.724Z,8.72
2024-02-07T01:17:38.503Z,8.71
2024-02-07T01:18:41.023Z,8.73
2024-02-07T01:19:43.648Z,8.72
2024-02-07T01:20:46.617Z,8.70
2024-02-07T01:21:49.625Z,8.79
2024-02-07T01:22:51.968Z,8.92
2024-02-07T01:23:54.296Z,8.90
2024-02-07T01:24:56.699Z,8.89
2024-02-07T01:26:00.483Z,8.87
2024-02-07T01:27:05.508Z,8.90
2024-02-07T01:28:08.782Z,8.89
2024-02-07T01:29:11.077Z,8.88
2024-02-07T01:30:13.442Z,8.81
2024-02-07T01:31:15.949Z,8.85
2024-02-07T01:32:18.369Z,8.94
2024-02-07T01:33:21.062Z,9.06
2024-02-07T01:34:23.573Z,8.98
2024-02-07T01:35:28.109Z,8.92
2024-02-07T01:36:30.528Z,8.91
2024-02-07T01:37:32.871Z,8.87
2024-02-07T01:38:35.440Z,8.85
2024-02-07T01:39:37.982Z,8.85
2024-02-07T01:40:43.501Z,8.84
2024-02-07T01:41:58.952Z,8.93
2024-02-07T01:43:02.361Z,8.94
2024-02-07T01:44:04.746Z,8.96
2024-02-07T01:45:18.937Z,8.93
2024-02-07T01:46:21.533Z,8.96
2024-02-07T01:47:24.335Z,8.98
2024-02-07T01:48:27.224Z,8.93
2024-02-07T01:49:29.644Z,8.95
2024-02-07T01:50:33.096Z,8.91
2024-02-07T01:51:35.419Z,8.95
2024-02-07T01:52:40.529Z,8.93
2024-02-07T01:53:44.098Z,8.98
2024-02-07T01:54:47.135Z,8.98
2024-02-07T01:55:52.688Z,8.92
2024-02-07T01:56:55.036Z,8.94
2024-02-07T01:57:58.043Z,8.98
2024-02-07T01:59:01.467Z,8.96
2024-02-07T02:00:11.380Z,9.00
2024-02-07T02:01:17.315Z,9.01
2024-02-07T02:02:20.549Z,8.98
2024-02-07T02:03:22.816Z,8.98
2024-02-07T02:04:25.193Z,9.02
2024-02-07T02:05:27.820Z,8.98
2024-02-07T02:06:30.653Z,9.03
2024-02-07T02:07:33.699Z,9.02
2024-02-07T02:08:35.996Z,9.01
2024-02-07T02:09:39.289Z,8.99
2024-02-07T02:10:41.716Z,9.01
2024-02-07T02:11:48.512Z,9.01
2024-02-07T02:12:51.825Z,8.97
2024-02-07T02:13:56.069Z,8.97
2024-02-07T02:14:58.807Z,8.98
2024-02-07T02:16:01.588Z,8.95
2024-02-07T02:17:03.996Z,8.89
2024-02-07T02:18:06.599Z,8.84
2024-02-07T02:19:08.964Z,8.82
2024-02-07T02:20:11.824Z,8.85
2024-02-07T02:21:22.890Z,8.90
2024-02-07T02:22:50.081Z,8.95
2024-02-07T02:24:28.011Z,8.95
2024-02-07T02:26:01.273Z,8.91
2024-02-07T02:27:36.669Z,8.93
2024-02-07T02:29:05.606Z,9.03
2024-02-07T02:30:20.680Z,9.08
2024-02-07T02:31:25.141Z,9.03
2024-02-07T02:32:29.833Z,9.10
2024-02-07T02:33:35.233Z,9.04
2024-02-07T02:34:39.108Z,9.22
2024-02-07T02:35:44.671Z,9.16
2024-02-07T02:36:47.048Z,9.16
2024-02-07T02:37:51.534Z,9.22
2024-02-07T02:38:54.265Z,9.26
2024-02-07T02:39:56.809Z,9.18
2024-02-07T02:40:59.245Z,9.13
2024-02-07T02:42:01.911Z,9.10
2024-02-07T02:43:04.434Z,9.10
2024-02-07T02:44:07.089Z,9.10
2024-02-07T02:45:09.638Z,9.19
2024-02-07T02:46:12.088Z,9.21
2024-02-07T02:47:15.340Z,9.25
2024-02-07T02:48:17.878Z,9.13
2024-02-07T02:49:20.345Z,9.16
2024-02-07T02:50:27.270Z,9.15
2024-02-07T02:51:30.332Z,9.19
2024-02-07T02:52:34.443Z,9.21
2024-02-07T02:53:38.757Z,9.16
2024-02-07T02:54:42.909Z,9.24
2024-02-07T02:55:45.620Z,9.24
2024-02-07T02:56:47.926Z,9.27
2024-02-07T02:57:51.512Z,9.28
2024-02-07T02:58:53.819Z,9.35
2024-02-07T02:59:56.253Z,9.23
2024-02-07T03:02:14.110Z,9.27
2024-02-07T03:03:17.280Z,9.21
2024-02-07T03:04:19.696Z,9.21
2024-02-07T03:05:41.308Z,9.24
2024-02-07T03:07:00.727Z,9.29
2024-02-07T03:08:07.036Z,9.24
2024-02-07T03:09:20.555Z,9.24
2024-02-07T03:10:24.718Z,9.24
2024-02-07T03:11:26.982Z,9.21
2024-02-07T03:12:29.457Z,9.22
2024-02-07T03:13:32.003Z,9.22
2024-02-07T03:14:34.370Z,9.35
2024-02-07T03:15:36.843Z,9.30
2024-02-07T03:16:39.428Z,9.25
2024-02-07T03:17:43.629Z,9.33
2024-02-07T03:18:45.969Z,9.28
2024-02-07T03:19:48.249Z,9.26
2024-02-07T03:20:51.636Z,9.19
2024-02-07T03:21:55.252Z,9.23
2024-02-07T03:22:58.904Z,9.20
2024-02-07T03:24:01.464Z,9.13
2024-02-07T03:25:03.937Z,9.17
2024-02-07T03:26:08.684Z,9.13
2024-02-07T03:27:12.276Z,9.10
2024-02-07T03:28:16.558Z,9.15
2024-02-07T03:29:19.189Z,9.14
2024-02-07T03:30:22.778Z,9.15
2024-02-07T03:31:25.216Z,9.13
2024-02-07T03:32:27.845Z,9.19
2024-02-07T03:33:30.470Z,9.20
2024-02-07T03:34:33.882Z,9.13
2024-02-07T03:35:36.388Z,9.17
2024-02-07T03:36:38.668Z,9.20
2024-02-07T03:37:41.647Z,9.11
2024-02-07T03:38:45.333Z,9.07
2024-02-07T03:39:47.887Z,9.07
2024-02-07T03:40:51.276Z,9.08
2024-02-07T03:41:53.788Z,9.06
2024-02-07T03:42:56.166Z,9.10
2024-02-07T03:43:59.934Z,9.11
2024-02-07T03:45:05.007Z,9.11
2024-02-07T03:46:09.957Z,9.08
2024-02-07T03:47:13.638Z,9.15
2024-02-07T03:48:18.181Z,9.11
2024-02-07T03:49:21.722Z,9.16
2024-02-07T03:50:26.841Z,9.12
2024-02-07T03:51:29.897Z,9.09
2024-02-07T03:52:32.377Z,9.05
2024-02-07T03:53:34.899Z,9.09
2024-02-07T03:54:50.714Z,9.04
2024-02-07T03:55:53.299Z,9.00
2024-02-07T03:56:55.649Z,9.01
2024-02-07T03:57:57.979Z,8.93
2024-02-07T03:59:00.353Z,9.02
2024-02-07T04:00:09.064Z,9.11
2024-02-07T04:01:19.291Z,9.07
2024-02-07T04:02:24.772Z,9.04
2024-02-07T04:03:27.991Z,9.17
2024-02-07T04:04:30.311Z,9.17
2024-02-07T04:05:32.745Z,9.13
2024-02-07T04:06:35.920Z,9.10
2024-02-07T04:07:39.268Z,9.06
2024-02-07T04:08:42.070Z,9.15
2024-02-07T04:09:44.917Z,9.07
2024-02-07T04:10:53.187Z,9.07
2024-02-07T04:11:55.801Z,9.07
2024-02-07T04:12:58.047Z,9.08
2024-02-07T04:14:00.477Z,9.12
2024-02-07T04:15:21.780Z,9.09
2024-02-07T04:16:42.580Z,9.02
2024-02-07T04:18:03.255Z,8.98
2024-02-07T04:19:25.168Z,9.15
2024-02-07T04:20:45.784Z,9.10
2024-02-07T04:22:06.694Z,8.99
2024-02-07T04:23:27.280Z,8.96
2024-02-07T04:24:47.965Z,8.93
2024-02-07T04:26:08.861Z,9.01
2024-02-07T04:27:30.021Z,8.99
2024-02-07T04:28:51.015Z,9.00
2024-02-07T04:30:12.035Z,9.04
2024-02-07T04:31:32.715Z,9.06
2024-02-07T04:32:53.324Z,9.06
2024-02-07T04:34:14.209Z,8.99
2024-02-07T04:35:35.033Z,9.04
2024-02-07T04:36:55.705Z,9.00
2024-02-07T04:38:16.418Z,9.08
2024-02-07T04:39:37.623Z,9.02
2024-02-07T04:40:58.424Z,9.01
2024-02-07T04:42:19.231Z,9.02
2024-02-07T04:43:39.890Z,8.97
2024-02-07T04:45:01.418Z,9.03
2024-02-07T04:46:22.600Z,9.04
2024-02-07T04:47:43.377Z,8.96
2024-02-07T04:49:04.145Z,9.01
2024-02-07T04:50:25.475Z,8.96
2024-02-07T04:51:46.284Z,9.03
2024-02-07T04:53:06.895Z,9.02
2024-02-07T04:54:28.412Z,8.98
2024-02-07T04:55:49.874Z,8.98
2024-02-07T04:57:10.763Z,9.05
2024-02-07T04:58:32.909Z,9.04
2024-02-07T04:59:53.851Z,9.01
2024-02-07T05:01:15.651Z,9.02
2024-02-07T05:02:36.611Z,9.00
2024-02-07T05:03:57.432Z,9.02
2024-02-07T05:05:18.979Z,9.02
2024-02-07T05:06:39.598Z,9.03
2024-02-07T05:08:00.127Z,9.03
2024-02-07T05:09:20.824Z,9.05
2024-02-07T05:10:42.788Z,9.05
2024-02-07T05:12:03.529Z,9.02
2024-02-07T05:13:24.869Z,8.99
2024-02-07T05:14:45.501Z,9.01
2024-02-07T05:15:47.803Z,9.09
2024-02-07T05:16:50.241Z,9.17
2024-02-07T05:17:53.223Z,9.15
2024-02-07T05:18:57.075Z,9.17
2024-02-07T05:19:59.782Z,9.10
2024-02-07T05:21:02.122Z,9.13
2024-02-07T05:22:04.740Z,9.10
2024-02-07T05:23:07.812Z,9.13
2024-02-07T05:24:12.105Z,9.22
2024-02-07T05:25:14.938Z,9.22
2024-02-07T05:26:19.930Z,9.15
2024-02-07T05:27:22.529Z,9.15
2024-02-07T05:28:24.877Z,9.19
2024-02-07T05:29:27.489Z,9.18
2024-02-07T05:30:29.931Z,9.19
2024-02-07T05:31:32.301Z,9.18
2024-02-07T05:32:35.534Z,9.12
2024-02-07T05:33:40.770Z,9.17
2024-02-07T05:34:43.401Z,9.14
2024-02-07T05:35:45.776Z,9.15
2024-02-07T05:36:48.340Z,9.16
2024-02-07T05:37:51.564Z,9.14
2024-02-07T05:38:56.179Z,9.14
2024-02-07T05:39:58.584Z,9.18
2024-02-07T05:41:01.224Z,9.17
2024-02-07T05:42:03.951Z,9.15
2024-02-07T05:43:06.452Z,9.14
2024-02-07T05:44:08.810Z,9.12
2024-02-07T05:45:11.340Z,9.08
2024-02-07T05:46:14.169Z,9.10
2024-02-07T05:47:16.983Z,9.11
2024-02-07T05:48:19.436Z,9.09
2024-02-07T05:49:22.910Z,9.11
2024-02-07T05:50:25.387Z,9.14
2024-02-07T05:51:28.443Z,9.18
2024-02-07T05:52:30.754Z,9.14
2024-02-07T05:53:33.394Z,9.17
2024-02-07T05:54:35.710Z,9.17
2024-02-07T05:55:38.123Z,9.26
2024-02-07T05:56:41.418Z,9.31
2024-02-07T05:57:43.815Z,9.23
2024-02-07T05:58:48.791Z,9.33
2024-02-07T05:59:51.103Z,9.24
2024-02-07T06:00:53.570Z,9.29
2024-02-07T06:01:55.976Z,9.28
2024-02-07T06:02:58.335Z,9.26
2024-02-07T06:04:01.979Z,9.19
2024-02-07T06:05:04.924Z,9.20
2024-02-07T06:06:07.614Z,9.20
2024-02-07T06:07:10.018Z,9.23
2024-02-07T06:08:12.825Z,9.25
2024-02-07T06:09:15.369Z,9.29
2024-02-07T06:10:20.929Z,9.32
2024-02-07T06:11:30.052Z,9.26
2024-02-07T06:12:33.267Z,9.32
2024-02-07T06:13:39.584Z,9.26
2024-02-07T06:14:42.628Z,9.24
2024-02-07T06:15:44.927Z,9.24
2024-02-07T06:16:47.289Z,9.26
2024-02-07T06:17:49.581Z,9.25
2024-02-07T06:18:51.946Z,9.21
2024-02-07T06:19:54.454Z,9.30
2024-02-07T06:20:56.885Z,9.26
2024-02-07T06:21:59.150Z,9.25
2024-02-07T06:23:01.541Z,9.25
2024-02-07T06:24:03.903Z,9.23
2024-02-07T06:25:06.578Z,9.21
2024-02-07T06:26:09.290Z,9.24
2024-02-07T06:27:14.289Z,9.19
2024-02-07T06:28:17.130Z,9.24
2024-02-07T06:29:19.710Z,9.28
2024-02-07T06:30:22.188Z,9.25
2024-02-07T06:31:24.496Z,9.21
2024-02-07T06:32:26.878Z,9.22
2024-02-07T06:33:29.279Z,9.24
2024-02-07T06:34:33.482Z,9.30
2024-02-07T06:35:36.369Z,9.29
2024-02-07T06:36:38.669Z,9.22
2024-02-07T06:37:43.676Z,9.23
2024-02-07T06:38:45.988Z,9.32
2024-02-07T06:39:48.408Z,9.31
2024-02-07T06:40:50.848Z,9.26
2024-02-07T06:41:53.474Z,9.20
2024-02-07T06:42:55.827Z,9.19
2024-02-07T06:43:58.872Z,9.17
2024-02-07T06:45:01.231Z,9.17
2024-02-07T06:46:04.213Z,9.17
2024-02-07T06:47:06.956Z,9.15
2024-02-07T06:48:09.346Z,9.11
2024-02-07T06:49:12.221Z,9.08
2024-02-07T06:50:18.666Z,9.10
2024-02-07T06:51:22.559Z,9.13
2024-02-07T06:52:24.940Z,9.16
2024-02-07T06:53:27.696Z,9.11
2024-02-07T06:54:30.040Z,9.09
2024-02-07T06:55:32.706Z,9.10
2024-02-07T06:56:34.965Z,9.10
2024-02-07T06:57:37.409Z,9.15
2024-02-07T06:58:39.833Z,9.13
2024-02-07T06:59:42.405Z,9.13
2024-02-07T07:00:44.807Z,9.18
2024-02-07T07:01:47.287Z,9.15
2024-02-07T07:02:53.502Z,9.18
2024-02-07T07:03:58.163Z,9.21
2024-02-07T07:05:00.612Z,9.24
2024-02-07T07:06:03.071Z,9.26
2024-02-07T07:07:05.377Z,9.24
2024-02-07T07:08:08.187Z,9.25
2024-02-07T07:09:10.915Z,9.26
2024-02-07T07:10:13.449Z,9.22
2024-02-07T07:11:15.781Z,9.19
2024-02-07T07:12:18.489Z,9.18
2024-02-07T07:13:21.765Z,9.21
2024-02-07T07:14:24.462Z,9.24
2024-02-07T07:15:33.219Z,9.24
2024-02-07T07:16:37.776Z,9.31
2024-02-07T07:17:40.240Z,9.30
2024-02-07T07:18:42.886Z,9.31
2024-02-07T07:19:45.228Z,9.30
2024-02-07T07:20:47.553Z,9.33
2024-02-07T07:21:50.324Z,9.37
2024-02-07T07:23:03.022Z,9.37
2024-02-07T07:24:10.441Z,9.35
2024-02-07T07:25:12.738Z,9.33
2024-02-07T07:26:15.090Z,9.32
2024-02-07T07:27:17.590Z,9.31
2024-02-07T07:28:19.902Z,9.31
2024-02-07T07:29:22.917Z,9.29
2024-02-07T07:30:25.337Z,9.35
2024-02-07T07:31:27.801Z,9.33
2024-02-07T07:32:30.561Z,9.32
2024-02-07T07:33:33.045Z,9.36
2024-02-07T07:34:35.455Z,9.39
2024-02-07T07:35:38.087Z,9.43
2024-02-07T07:36:40.605Z,9.47
2024-02-07T07:37:42.949Z,9.53
2024-02-07T07:38:45.565Z,9.42
2024-02-07T07:39:47.989Z,9.47
2024-02-07T07:40:50.319Z,9.51
2024-02-07T07:41:52.676Z,9.60
2024-02-07T07:42:55.065Z,9.55
2024-02-07T07:43:58.594Z,9.53
2024-02-07T07:45:01.069Z,9.47
2024-02-07T07:46:03.423Z,9.47
2024-02-07T07:47:05.728Z,9.43
2024-02-07T07:48:08.378Z,9.48
2024-02-07T07:49:10.877Z,9.58
2024-02-07T07:50:13.520Z,9.59
2024-02-07T07:51:20.701Z,9.64
2024-02-07T07:52:24.136Z,9.59
2024-02-07T07:53:26.905Z,9.58
2024-02-07T07:54:29.339Z,9.59
2024-02-07T07:55:31.667Z,9.58
2024-02-07T07:56:34.152Z,9.60
2024-02-07T07:57:36.540Z,9.62
2024-02-07T07:58:48.580Z,9.71
2024-02-07T07:59:54.946Z,9.70
2024-02-07T08:00:57.318Z,9.69
2024-02-07T08:02:00.800Z,9.69
2024-02-07T08:03:04.230Z,9.69
2024-02-07T08:04:06.485Z,9.64
2024-02-07T08:05:09.342Z,9.72
2024-02-07T08:06:11.810Z,9.66
2024-02-07T08:07:14.123Z,9.67
2024-02-07T08:08:16.683Z,9.69
2024-02-07T08:09:19.816Z,9.75
2024-02-07T08:10:23.039Z,9.72
2024-02-07T08:11:25.537Z,9.72
2024-02-07T08:12:28.544Z,9.74
2024-02-07T08:13:33.478Z,9.77
2024-02-07T08:14:35.790Z,9.79
2024-02-07T08:15:38.202Z,9.83
2024-02-07T08:16:40.596Z,9.76
2024-02-07T08:17:42.950Z,9.76
2024-02-07T08:18:45.539Z,9.89
2024-02-07T08:19:48.459Z,9.74
2024-02-07T08:20:50.860Z,9.74
2024-02-07T08:21:53.137Z,9.71
2024-02-07T08:22:55.587Z,9.72
2024-02-07T08:23:58.216Z,9.65
2024-02-07T08:25:00.571Z,9.67
2024-02-07T08:26:03.034Z,9.63
2024-02-07T08:27:05.951Z,9.56
2024-02-07T08:28:08.233Z,9.59
2024-02-07T08:29:10.573Z,9.64
2024-02-07T08:30:13.595Z,9.66
2024-02-07T08:31:16.077Z,9.57
2024-02-07T08:32:18.630Z,9.57
2024-02-07T08:33:21.400Z,9.60
2024-02-07T08:34:24.356Z,9.69
2024-02-07T08:35:26.894Z,9.75
2024-02-07T08:36:30.242Z,9.75
2024-02-07T08:37:32.705Z,9.79
2024-02-07T08:38:35.268Z,9.83
2024-02-07T08:39:37.576Z,9.79
2024-02-07T08:40:39.825Z,9.71
2024-02-07T08:41:42.704Z,9.77
2024-02-07T08:42:45.749Z,9.73
2024-02-07T08:43:48.275Z,9.76
2024-02-07T08:44:50.767Z,9.72
2024-02-07T08:45:53.432Z,9.74
2024-02-07T08:46:55.935Z,9.86
2024-02-07T08:47:58.357Z,9.89
2024-02-07T08:49:00.842Z,9.84
2024-02-07T08:50:03.339Z,9.85
2024-02-07T08:51:05.969Z,9.84
2024-02-07T08:52:08.587Z,9.85
2024-02-07T08:53:12.364Z,9.96
2024-02-07T08:54:14.629Z,10.00
2024-02-07T08:55:17.005Z,9.89
2024-02-07T08:56:19.377Z,9.88
2024-02-07T08:57:21.924Z,9.98
2024-02-07T08:58:25.018Z,9.91
2024-02-07T08:59:27.371Z,9.97
2024-02-07T09:00:29.920Z,9.91
2024-02-07T09:01:32.642Z,9.89
2024-02-07T09:02:35.223Z,9.84
2024-02-07T09:03:37.591Z,9.85
2024-02-07T09:04:39.898Z,9.79
2024-02-07T09:05:42.842Z,9.77
2024-02-07T09:06:46.642Z,9.95
2024-02-07T09:07:49.907Z,9.93
2024-02-07T09:08:52.323Z,10.01
2024-02-07T09:09:54.923Z,10.06
2024-02-07T09:10:59.054Z,10.04
2024-02-07T09:12:01.635Z,10.04
2024-02-07T09:13:04.043Z,10.02
2024-02-07T09:14:06.294Z,10.01
2024-02-07T09:15:08.949Z,10.09
2024-02-07T09:16:11.278Z,10.07
2024-02-07T09:17:13.498Z,10.20
2024-02-07T09:18:16.089Z,10.19
2024-02-07T09:19:18.524Z,10.18
2024-02-07T09:20:21.143Z,10.15
2024-02-07T09:21:25.118Z,10.20
2024-02-07T09:22:27.697Z,10.30
2024-02-07T09:23:29.964Z,10.40
2024-02-07T09:24:32.190Z,10.28
2024-02-07T09:25:35.363Z,10.29
2024-02-07T09:26:37.569Z,10.26
2024-02-07T09:27:41.794Z,10.34
2024-02-07T09:28:44.157Z,10.48
2024-02-07T09:29:48.321Z,10.50
2024-02-07T09:30:50.728Z,10.41
2024-02-07T09:31:53.059Z,10.36
2024-02-07T09:32:55.361Z,10.37
2024-02-07T09:33:57.830Z,10.53
2024-02-07T09:35:02.244Z,10.69
2024-02-07T09:36:05.286Z,10.53
2024-02-07T09:37:07.674Z,10.41
2024-02-07T09:38:10.298Z,10.50
2024-02-07T09:39:12.569Z,10.53
2024-02-07T09:40:15.052Z,10.61
2024-02-07T09:41:20.395Z,10.76
2024-02-07T09:42:23.098Z,10.59
2024-02-07T09:43:25.921Z,10.73
2024-02-07T09:44:31.416Z,10.83
2024-02-07T09:45:37.710Z,11.01
2024-02-07T09:46:44.278Z,10.96
2024-02-07T09:48:01.431Z,10.93
2024-02-07T09:49:06.673Z,10.79
2024-02-07T09:50:11.378Z,10.73
2024-02-07T09:51:16.272Z,10.75
2024-02-07T09:52:20.253Z,10.82
2024-02-07T09:53:22.973Z,10.89
2024-02-07T09:54:25.376Z,10.77
2024-02-07T09:55:29.354Z,11.02
2024-02-07T09:56:33.040Z,10.99
2024-02-07T09:57:36.974Z,11.10
2024-02-07T09:58:40.600Z,11.32
2024-02-07T09:59:43.182Z,11.27
2024-02-07T10:00:45.735Z,11.11
2024-02-07T10:01:48.754Z,11.07
2024-02-07T10:02:51.866Z,11.07
2024-02-07T10:03:58.282Z,10.92
2024-02-07T10:05:04.621Z,10.89
2024-02-07T10:06:08.293Z,11.17
2024-02-07T10:07:13.515Z,11.27
2024-02-07T10:08:16.179Z,11.26
2024-02-07T10:09:19.358Z,11.60
2024-02-07T10:10:22.608Z,11.54
2024-02-07T10:11:27.415Z,11.49
2024-02-07T10:12:30.197Z,11.68
2024-02-07T10:13:32.556Z,11.54
2024-02-07T10:14:35.018Z,11.60
2024-02-07T10:15:37.399Z,11.47
2024-02-07T10:16:40.134Z,11.55
2024-02-07T10:17:42.598Z,11.81
2024-02-07T10:18:45.440Z,11.86
2024-02-07T10:19:47.798Z,11.61
2024-02-07T10:20:54.416Z,11.52
2024-02-07T10:21:56.712Z,11.34
2024-02-07T10:22:58.984Z,11.30
2024-02-07T10:24:03.522Z,11.50
2024-02-07T10:25:11.696Z,11.41
2024-02-07T10:26:15.114Z,11.61
2024-02-07T10:27:19.479Z,11.68
2024-02-07T10:28:26.293Z,11.51
2024-02-07T10:29:28.849Z,11.41
2024-02-07T10:30:31.183Z,11.22
2024-02-07T10:31:33.661Z,11.13
2024-02-07T10:32:37.317Z,11.38
2024-02-07T10:33:45.423Z,11.36
2024-02-07T10:34:57.089Z,11.34
2024-02-07T10:36:02.382Z,11.40
2024-02-07T10:37:04.979Z,11.50
2024-02-07T10:38:08.142Z,11.42
2024-02-07T10:39:10.708Z,11.42
2024-02-07T10:40:13.516Z,11.43
2024-02-07T10:41:16.140Z,11.36
2024-02-07T10:42:18.542Z,11.37
2024-02-07T10:43:37.326Z,11.27
2024-02-07T10:44:39.947Z,11.59
2024-02-07T10:45:42.638Z,11.79
2024-02-07T10:46:45.036Z,11.65
2024-02-07T10:47:47.601Z,11.56
2024-02-07T10:48:50.522Z,11.57
2024-02-07T10:49:53.058Z,11.59
2024-02-07T10:50:56.773Z,11.60
2024-02-07T10:51:59.610Z,11.68
2024-02-07T10:53:01.979Z,11.74
2024-02-07T10:54:10.663Z,11.77
2024-02-07T10:55:15.279Z,11.85
2024-02-07T10:56:19.595Z,11.59
2024-02-07T10:57:36.489Z,11.78
2024-02-07T10:58:39.110Z,11.56
2024-02-07T10:59:42.936Z,11.60
2024-02-07T11:00:46.070Z,11.51
2024-02-07T11:01:49.149Z,11.57
2024-02-07T11:02:53.782Z,11.70
2024-02-07T11:03:57.912Z,11.83
2024-02-07T11:05:02.167Z,11.72
2024-02-07T11:06:06.177Z,11.65
2024-02-07T11:07:15.424Z,11.48
2024-02-07T11:08:18.970Z,11.58
2024-02-07T11:09:21.527Z,11.49
2024-02-07T11:10:24.830Z,11.43
2024-02-07T11:11:29.254Z,11.31
2024-02-07T11:12:32.349Z,11.12
2024-02-07T11:13:35.264Z,11.12
2024-02-07T11:14:38.514Z,11.15
2024-02-07T11:15:41.197Z,11.17
2024-02-07T11:16:43.999Z,11.05
2024-02-07T11:17:46.720Z,11.17
2024-02-07T11:18:49.152Z,11.22
2024-02-07T11:19:51.923Z,11.26
2024-02-07T11:20:56.389Z,11.45
2024-02-07T11:21:59.064Z,11.25
2024-02-07T11:23:16.529Z,11.13
2024-02-07T11:24:22.572Z,11.19
2024-02-07T11:25:27.115Z,11.20
2024-02-07T11:26:29.763Z,11.18
2024-02-07T11:27:32.681Z,11.23
2024-02-07T11:28:38.014Z,11.19
2024-02-07T11:29:43.356Z,11.07
2024-02-07T11:30:47.931Z,11.00
2024-02-07T11:31:55.165Z,11.05
2024-02-07T11:32:59.485Z,11.12
2024-02-07T11:34:02.647Z,11.04
2024-02-07T11:35:08.568Z,11.07
2024-02-07T11:36:18.973Z,11.29
2024-02-07T11:37:23.750Z,11.23
2024-02-07T11:38:26.401Z,11.13
2024-02-07T11:39:36.929Z,11.07
2024-02-07T11:40:40.853Z,11.21
2024-02-07T11:41:47.551Z,11.36
2024-02-07T11:42:49.974Z,11.42
2024-02-07T11:43:56.466Z,11.24
2024-02-07T11:45:01.319Z,11.17
2024-02-07T11:46:07.278Z,11.14
2024-02-07T11:47:09.848Z,11.06
2024-02-07T11:48:25.095Z,11.13
2024-02-07T11:49:31.359Z,11.20
2024-02-07T11:50:38.424Z,11.14
2024-02-07T11:51:40.717Z,11.01
2024-02-07T11:52:46.989Z,11.11
2024-02-07T11:53:49.736Z,11.13
2024-02-07T11:54:52.107Z,11.21
2024-02-07T11:55:54.487Z,11.19
2024-02-07T11:56:59.676Z,11.17
2024-02-07T11:58:05.971Z,11.06
2024-02-07T11:59:08.466Z,10.95
2024-02-07T12:00:17.373Z,11.00
2024-02-07T12:01:20.155Z,10.94
2024-02-07T12:02:23.690Z,11.03
2024-02-07T12:03:26.155Z,10.87
2024-02-07T12:04:38.075Z,10.84
2024-02-07T12:05:40.869Z,10.84
2024-02-07T12:06:45.344Z,10.82
2024-02-07T12:07:51.338Z,10.92
2024-02-07T12:08:54.462Z,10.97
2024-02-07T12:09:57.011Z,10.78
2024-02-07T12:10:59.447Z,10.76
2024-02-07T12:12:01.954Z,10.73
2024-02-07T12:13:04.418Z,10.87
2024-02-07T12:14:07.931Z,10.75
2024-02-07T12:15:10.506Z,10.88
2024-02-07T12:16:15.538Z,10.86
2024-02-07T12:17:20.689Z,10.85
2024-02-07T12:18:23.200Z,10.89
2024-02-07T12:19:25.774Z,10.86
2024-02-07T12:20:30.856Z,10.82
2024-02-07T12:21:36.447Z,10.71
2024-02-07T12:22:38.924Z,10.85
2024-02-07T12:23:41.618Z,10.81
2024-02-07T12:24:44.908Z,10.68
2024-02-07T12:26:00.351Z,10.68
2024-02-07T12:27:15.601Z,10.88
2024-02-07T12:28:18.730Z,10.76
2024-02-07T12:29:22.191Z,10.70
2024-02-07T12:30:24.478Z,10.78
2024-02-07T12:31:26.882Z,10.73
2024-02-07T12:32:30.970Z,10.60
2024-02-07T12:33:33.495Z,10.52
2024-02-07T12:34:35.972Z,10.47
2024-02-07T12:35:48.768Z,10.52
2024-02-07T12:36:54.540Z,10.42
2024-02-07T12:38:01.262Z,10.44
2024-02-07T12:39:03.897Z,10.27
2024-02-07T12:40:15.649Z,10.28
2024-02-07T12:41:18.154Z,10.31
2024-02-07T12:42:21.612Z,10.43
2024-02-07T12:43:26.218Z,10.31
2024-02-07T12:44:28.930Z,10.12
2024-02-07T12:45:31.983Z,10.13
2024-02-07T12:46:34.452Z,10.32
2024-02-07T12:47:36.965Z,10.28
2024-02-07T12:48:39.408Z,10.21
2024-02-07T12:49:43.181Z,10.08
2024-02-07T12:50:45.813Z,10.06
2024-02-07T12:51:48.455Z,10.02
2024-02-07T12:52:51.470Z,9.97
2024-02-07T12:53:54.523Z,9.93
2024-02-07T12:54:56.748Z,9.88
2024-02-07T12:55:59.166Z,9.85
2024-02-07T12:57:01.826Z,9.82
2024-02-07T12:58:05.272Z,9.91
2024-02-07T12:59:09.241Z,9.90
2024-02-07T13:00:13.186Z,9.96
2024-02-07T13:01:27.479Z,9.89
2024-02-07T13:02:30.844Z,9.99
2024-02-07T13:03:34.235Z,10.08
2024-02-07T13:04:38.060Z,9.98
2024-02-07T13:05:40.757Z,9.81
2024-02-07T13:06:43.925Z,9.89
2024-02-07T13:07:46.497Z,9.85
2024-02-07T13:08:52.488Z,9.71
2024-02-07T13:09:54.948Z,9.84
2024-02-07T13:10:57.301Z,10.04
2024-02-07T13:12:01.576Z,10.00
2024-02-07T13:13:06.960Z,9.86
2024-02-07T13:14:10.644Z,9.80
2024-02-07T13:15:18.255Z,9.80
2024-02-07T13:16:23.706Z,9.91
2024-02-07T13:17:26.302Z,9.80
2024-02-07T13:18:29.110Z,9.75
2024-02-07T13:19:31.570Z,9.86
2024-02-07T13:20:34.243Z,10.04
2024-02-07T13:21:36.542Z,9.89
2024-02-07T13:22:38.948Z,9.95
2024-02-07T13:23:41.615Z,9.97
2024-02-07T13:24:44.041Z,9.89
2024-02-07T13:25:51.725Z,9.97
2024-02-07T13:26:54.258Z,9.93
2024-02-07T13:27:56.627Z,9.90
2024-02-07T13:29:03.158Z,9.95
2024-02-07T13:30:08.062Z,9.89
2024-02-07T13:31:10.458Z,9.96
2024-02-07T13:32:16.813Z,9.85
2024-02-07T13:33:19.158Z,9.93
2024-02-07T13:34:21.573Z,9.94
2024-02-07T13:35:24.110Z,10.01
2024-02-07T13:36:26.477Z,10.01
2024-02-07T13:37:29.312Z,10.10
2024-02-07T13:38:37.171Z,9.98
2024-02-07T13:39:40.398Z,9.98
2024-02-07T13:40:42.967Z,9.90
2024-02-07T13:41:45.531Z,10.05
2024-02-07T13:42:47.819Z,9.99
2024-02-07T13:43:50.324Z,10.05
2024-02-07T13:44:53.835Z,10.02
2024-02-07T13:45:56.377Z,9.90
2024-02-07T13:46:59.182Z,9.87
2024-02-07T13:48:02.551Z,9.85
2024-02-07T13:49:09.784Z,9.89
2024-02-07T13:50:12.564Z,9.85
2024-02-07T13:51:15.439Z,9.79
2024-02-07T13:52:18.120Z,9.79
2024-02-07T13:53:20.700Z,9.78
2024-02-07T13:54:23.305Z,9.72
2024-02-07T13:55:26.086Z,9.75
2024-02-07T13:56:29.743Z,9.88
2024-02-07T13:57:32.908Z,9.80
2024-02-07T13:58:35.849Z,9.86
2024-02-07T13:59:38.278Z,9.85
2024-02-07T14:00:41.872Z,9.73
2024-02-07T14:01:44.874Z,9.62
2024-02-07T14:02:47.260Z,9.70
2024-02-07T14:03:49.805Z,9.83
2024-02-07T14:04:52.206Z,9.75
2024-02-07T14:05:55.497Z,9.71
2024-02-07T14:06:58.143Z,9.87
2024-02-07T14:08:02.353Z,9.73
2024-02-07T14:09:06.159Z,9.69
2024-02-07T14:10:08.998Z,9.68
2024-02-07T14:11:11.832Z,9.63
2024-02-07T14:12:17.360Z,9.65
2024-02-07T14:13:19.695Z,9.69
2024-02-07T14:14:23.953Z,9.73
2024-02-07T14:15:26.355Z,9.80